Agness, Oregon
Current Conditions -  °F | °C
As of 2:06 AM on Friday 31 Oct 2014 (Local Time) from KBOK Reporting Station
Heavy Rain Heavy Rain  
Wind Chill: 52°   Ceiling: 300
Heat Index: 52°   Visibility: 3mi
Dew Point: 52°   Wind: 15mph
Humidity: 100%   Direction: 330°NNW
Pressure: 29.81"   Gusts: 21mph
Location:  42.56°N, 124.07°W
Report Text: KBOK 310906Z AUTO 33013G18KT 3SM +RA BR BKN003 OVC012 11/11 A2981 RMK AO2 CIG 001V007 P0001
Loading
Personal Weather Stations






























Interactive Weather Map
Tropical Storm Tracking
New forecast layout! Learn more

10-Day Weather Forecast

Advertisements
Track Severe Weather on mobile